sensor_id;sensor_type;location;lat;lon;timestamp;P1;durP1;ratioP1;P2;durP2;ratioP2
19036;SDS011;9651;49.138;8.900;2023-02-28T00:02:39;3.40;;;2.47;;
19036;SDS011;9651;49.138;8.900;2023-02-28T00:06:42;3.63;;;2.30;;
19036;SDS011;9651;49.138;8.900;2023-02-28T00:10:44;3.97;;;2.77;;
19036;SDS011;9651;49.138;8.900;2023-02-28T00:14:47;3.93;;;2.57;;
19036;SDS011;9651;49.138;8.900;2023-02-28T00:18:49;5.83;;;2.70;;
19036;SDS011;9651;49.138;8.900;2023-02-28T00:22:52;3.57;;;2.73;;
19036;SDS011;9651;49.138;8.900;2023-02-28T00:26:55;3.07;;;2.20;;
19036;SDS011;9651;49.138;8.900;2023-02-28T00:30:58;5.30;;;3.00;;
19036;SDS011;9651;49.138;8.900;2023-02-28T00:35:01;4.00;;;2.80;;
19036;SDS011;9651;49.138;8.900;2023-02-28T00:39:03;3.33;;;2.50;;
19036;SDS011;9651;49.138;8.900;2023-02-28T00:43:05;5.73;;;2.63;;
19036;SDS011;9651;49.138;8.900;2023-02-28T00:47:08;3.73;;;2.40;;
19036;SDS011;9651;49.138;8.900;2023-02-28T00:51:10;3.67;;;2.70;;
19036;SDS011;9651;49.138;8.900;2023-02-28T00:55:12;3.87;;;2.80;;
19036;SDS011;9651;49.138;8.900;2023-02-28T00:59:15;3.83;;;2.57;;
19036;SDS011;9651;49.138;8.900;2023-02-28T01:03:20;4.33;;;2.90;;
19036;SDS011;9651;49.138;8.900;2023-02-28T01:07:23;6.50;;;3.07;;
19036;SDS011;9651;49.138;8.900;2023-02-28T01:11:25;5.33;;;3.10;;
19036;SDS011;9651;49.138;8.900;2023-02-28T01:15:27;4.47;;;2.93;;
19036;SDS011;9651;49.138;8.900;2023-02-28T01:19:30;4.83;;;2.97;;
19036;SDS011;9651;49.138;8.900;2023-02-28T01:23:33;4.73;;;2.70;;
19036;SDS011;9651;49.138;8.900;2023-02-28T01:27:35;4.30;;;2.70;;
19036;SDS011;9651;49.138;8.900;2023-02-28T01:31:36;5.97;;;2.93;;
19036;SDS011;9651;49.138;8.900;2023-02-28T01:35:43;4.83;;;3.10;;
19036;SDS011;9651;49.138;8.900;2023-02-28T01:39:45;5.40;;;3.10;;
19036;SDS011;9651;49.138;8.900;2023-02-28T01:44:00;5.53;;;3.23;;
19036;SDS011;9651;49.138;8.900;2023-02-28T01:48:05;3.33;;;2.70;;
19036;SDS011;9651;49.138;8.900;2023-02-28T01:52:11;4.13;;;2.77;;
19036;SDS011;9651;49.138;8.900;2023-02-28T01:56:22;4.30;;;2.50;;
19036;SDS011;9651;49.138;8.900;2023-02-28T02:00:27;5.20;;;3.00;;
19036;SDS011;9651;49.138;8.900;2023-02-28T02:04:32;8.03;;;2.93;;
19036;SDS011;9651;49.138;8.900;2023-02-28T02:08:41;4.87;;;3.20;;
19036;SDS011;9651;49.138;8.900;2023-02-28T02:12:48;4.87;;;2.93;;
19036;SDS011;9651;49.138;8.900;2023-02-28T02:17:15;5.30;;;3.23;;
19036;SDS011;9651;49.138;8.900;2023-02-28T02:21:33;8.20;;;3.40;;
19036;SDS011;9651;49.138;8.900;2023-02-28T02:26:06;4.83;;;3.23;;
19036;SDS011;9651;49.138;8.900;2023-02-28T02:30:33;6.13;;;3.37;;
19036;SDS011;9651;49.138;8.900;2023-02-28T02:34:57;6.13;;;3.33;;
19036;SDS011;9651;49.138;8.900;2023-02-28T02:39:08;4.97;;;3.50;;
19036;SDS011;9651;49.138;8.900;2023-02-28T02:43:16;5.70;;;3.50;;
19036;SDS011;9651;49.138;8.900;2023-02-28T02:47:21;5.50;;;3.70;;
19036;SDS011;9651;49.138;8.900;2023-02-28T02:51:29;5.33;;;3.30;;
19036;SDS011;9651;49.138;8.900;2023-02-28T02:55:34;6.90;;;3.47;;
19036;SDS011;9651;49.138;8.900;2023-02-28T02:59:40;7.93;;;4.63;;
19036;SDS011;9651;49.138;8.900;2023-02-28T03:03:43;7.10;;;3.80;;
19036;SDS011;9651;49.138;8.900;2023-02-28T03:07:48;10.43;;;3.93;;
19036;SDS011;9651;49.138;8.900;2023-02-28T03:11:50;6.20;;;3.73;;
19036;SDS011;9651;49.138;8.900;2023-02-28T03:15:57;6.10;;;3.83;;
19036;SDS011;9651;49.138;8.900;2023-02-28T03:20:12;11.60;;;4.20;;
19036;SDS011;9651;49.138;8.900;2023-02-28T03:24:21;6.10;;;3.60;;
19036;SDS011;9651;49.138;8.900;2023-02-28T03:28:35;7.67;;;4.90;;
19036;SDS011;9651;49.138;8.900;2023-02-28T03:32:43;6.27;;;3.33;;
19036;SDS011;9651;49.138;8.900;2023-02-28T03:36:52;8.33;;;3.93;;
19036;SDS011;9651;49.138;8.900;2023-02-28T03:41:00;7.83;;;4.40;;
19036;SDS011;9651;49.138;8.900;2023-02-28T03:45:09;5.87;;;3.90;;
19036;SDS011;9651;49.138;8.900;2023-02-28T03:49:15;7.23;;;3.80;;
19036;SDS011;9651;49.138;8.900;2023-02-28T03:53:21;6.60;;;3.57;;
19036;SDS011;9651;49.138;8.900;2023-02-28T03:57:30;6.07;;;3.57;;
19036;SDS011;9651;49.138;8.900;2023-02-28T04:01:37;7.40;;;3.73;;
19036;SDS011;9651;49.138;8.900;2023-02-28T04:05:46;5.63;;;3.70;;
19036;SDS011;9651;49.138;8.900;2023-02-28T04:09:51;5.57;;;3.43;;
19036;SDS011;9651;49.138;8.900;2023-02-28T04:13:54;6.97;;;4.00;;
19036;SDS011;9651;49.138;8.900;2023-02-28T04:17:56;6.07;;;4.00;;
19036;SDS011;9651;49.138;8.900;2023-02-28T04:21:58;6.60;;;3.80;;
19036;SDS011;9651;49.138;8.900;2023-02-28T04:26:00;7.03;;;3.60;;
19036;SDS011;9651;49.138;8.900;2023-02-28T04:30:04;5.30;;;3.53;;
19036;SDS011;9651;49.138;8.900;2023-02-28T04:34:06;6.40;;;3.87;;
19036;SDS011;9651;49.138;8.900;2023-02-28T04:38:08;5.63;;;3.77;;
19036;SDS011;9651;49.138;8.900;2023-02-28T04:42:10;6.27;;;3.77;;
19036;SDS011;9651;49.138;8.900;2023-02-28T04:46:14;7.53;;;4.17;;
19036;SDS011;9651;49.138;8.900;2023-02-28T04:50:17;8.43;;;4.27;;
19036;SDS011;9651;49.138;8.900;2023-02-28T04:54:19;7.77;;;3.97;;
19036;SDS011;9651;49.138;8.900;2023-02-28T04:58:21;5.87;;;3.90;;
19036;SDS011;9651;49.138;8.900;2023-02-28T05:02:25;6.70;;;4.00;;
19036;SDS011;9651;49.138;8.900;2023-02-28T05:06:27;5.40;;;3.40;;
19036;SDS011;9651;49.138;8.900;2023-02-28T05:10:31;7.00;;;4.27;;
19036;SDS011;9651;49.138;8.900;2023-02-28T05:14:33;9.13;;;4.53;;
19036;SDS011;9651;49.138;8.900;2023-02-28T05:18:36;7.20;;;4.60;;
19036;SDS011;9651;49.138;8.900;2023-02-28T05:22:38;5.67;;;4.00;;
19036;SDS011;9651;49.138;8.900;2023-02-28T05:26:41;6.10;;;3.60;;
19036;SDS011;9651;49.138;8.900;2023-02-28T05:30:43;7.40;;;4.20;;
19036;SDS011;9651;49.138;8.900;2023-02-28T05:34:47;9.23;;;4.63;;
19036;SDS011;9651;49.138;8.900;2023-02-28T05:38:49;5.83;;;3.90;;
19036;SDS011;9651;49.138;8.900;2023-02-28T05:42:51;6.87;;;4.30;;
19036;SDS011;9651;49.138;8.900;2023-02-28T05:46:53;6.00;;;3.77;;
19036;SDS011;9651;49.138;8.900;2023-02-28T05:50:57;7.13;;;3.63;;
19036;SDS011;9651;49.138;8.900;2023-02-28T05:54:59;6.60;;;4.03;;
19036;SDS011;9651;49.138;8.900;2023-02-28T05:59:01;12.10;;;6.27;;
19036;SDS011;9651;49.138;8.900;2023-02-28T06:03:03;11.93;;;5.47;;
19036;SDS011;9651;49.138;8.900;2023-02-28T06:07:07;12.27;;;5.77;;
19036;SDS011;9651;49.138;8.900;2023-02-28T06:11:09;10.33;;;5.13;;
19036;SDS011;9651;49.138;8.900;2023-02-28T06:15:11;11.73;;;5.13;;
19036;SDS011;9651;49.138;8.900;2023-02-28T06:19:14;11.07;;;5.30;;
19036;SDS011;9651;49.138;8.900;2023-02-28T06:23:17;7.47;;;4.47;;
19036;SDS011;9651;49.138;8.900;2023-02-28T06:27:19;12.57;;;5.83;;
19036;SDS011;9651;49.138;8.900;2023-02-28T06:31:22;7.73;;;4.73;;
19036;SDS011;9651;49.138;8.900;2023-02-28T06:35:25;11.60;;;5.53;;
19036;SDS011;9651;49.138;8.900;2023-02-28T06:39:29;9.97;;;4.63;;
19036;SDS011;9651;49.138;8.900;2023-02-28T06:43:31;8.00;;;4.17;;
19036;SDS011;9651;49.138;8.900;2023-02-28T06:47:34;9.23;;;4.83;;
19036;SDS011;9651;49.138;8.900;2023-02-28T06:51:38;7.30;;;4.47;;
19036;SDS011;9651;49.138;8.900;2023-02-28T06:55:42;14.37;;;4.63;;
19036;SDS011;9651;49.138;8.900;2023-02-28T06:59:44;11.73;;;5.13;;
19036;SDS011;9651;49.138;8.900;2023-02-28T07:03:46;8.87;;;5.07;;
19036;SDS011;9651;49.138;8.900;2023-02-28T07:07:52;14.77;;;5.43;;
19036;SDS011;9651;49.138;8.900;2023-02-28T07:11:55;13.13;;;5.30;;
19036;SDS011;9651;49.138;8.900;2023-02-28T07:15:58;16.07;;;5.47;;
19036;SDS011;9651;49.138;8.900;2023-02-28T07:20:01;9.23;;;5.40;;
19036;SDS011;9651;49.138;8.900;2023-02-28T07:24:04;8.30;;;4.63;;
19036;SDS011;9651;49.138;8.900;2023-02-28T07:28:08;10.80;;;5.10;;
19036;SDS011;9651;49.138;8.900;2023-02-28T07:32:10;8.60;;;4.53;;
19036;SDS011;9651;49.138;8.900;2023-02-28T07:36:13;10.87;;;5.17;;
19036;SDS011;9651;49.138;8.900;2023-02-28T07:40:17;12.90;;;5.10;;
19036;SDS011;9651;49.138;8.900;2023-02-28T07:44:20;17.03;;;5.13;;
19036;SDS011;9651;49.138;8.900;2023-02-28T07:48:22;9.30;;;5.10;;
19036;SDS011;9651;49.138;8.900;2023-02-28T07:52:24;12.60;;;5.07;;
19036;SDS011;9651;49.138;8.900;2023-02-28T07:56:26;16.37;;;5.57;;
19036;SDS011;9651;49.138;8.900;2023-02-28T08:00:29;11.33;;;6.03;;
19036;SDS011;9651;49.138;8.900;2023-02-28T08:04:32;11.03;;;5.67;;
19036;SDS011;9651;49.138;8.900;2023-02-28T08:08:34;9.17;;;4.57;;
19036;SDS011;9651;49.138;8.900;2023-02-28T08:12:35;8.57;;;5.23;;
19036;SDS011;9651;49.138;8.900;2023-02-28T08:16:39;10.63;;;4.77;;
19036;SDS011;9651;49.138;8.900;2023-02-28T08:20:40;11.57;;;5.60;;
19036;SDS011;9651;49.138;8.900;2023-02-28T08:24:43;8.30;;;5.17;;
19036;SDS011;9651;49.138;8.900;2023-02-28T08:28:45;8.33;;;4.87;;
19036;SDS011;9651;49.138;8.900;2023-02-28T08:32:48;9.07;;;5.47;;
19036;SDS011;9651;49.138;8.900;2023-02-28T08:36:50;7.60;;;5.03;;
19036;SDS011;9651;49.138;8.900;2023-02-28T08:40:56;9.90;;;5.93;;
19036;SDS011;9651;49.138;8.900;2023-02-28T08:44:59;7.87;;;4.83;;
19036;SDS011;9651;49.138;8.900;2023-02-28T08:49:02;6.13;;;4.67;;
19036;SDS011;9651;49.138;8.900;2023-02-28T08:53:04;9.43;;;5.53;;
19036;SDS011;9651;49.138;8.900;2023-02-28T08:57:06;9.50;;;5.03;;
19036;SDS011;9651;49.138;8.900;2023-02-28T09:01:09;8.30;;;5.33;;
19036;SDS011;9651;49.138;8.900;2023-02-28T09:05:15;8.10;;;4.97;;
19036;SDS011;9651;49.138;8.900;2023-02-28T09:09:17;7.40;;;4.83;;
19036;SDS011;9651;49.138;8.900;2023-02-28T09:13:19;10.27;;;5.97;;
19036;SDS011;9651;49.138;8.900;2023-02-28T09:17:21;10.23;;;5.80;;
19036;SDS011;9651;49.138;8.900;2023-02-28T09:21:24;8.50;;;5.17;;
19036;SDS011;9651;49.138;8.900;2023-02-28T09:25:26;8.10;;;4.90;;
19036;SDS011;9651;49.138;8.900;2023-02-28T09:29:28;9.73;;;4.57;;
19036;SDS011;9651;49.138;8.900;2023-02-28T09:33:30;9.57;;;5.77;;
19036;SDS011;9651;49.138;8.900;2023-02-28T09:37:35;8.13;;;5.63;;
19036;SDS011;9651;49.138;8.900;2023-02-28T09:41:38;8.63;;;5.97;;
19036;SDS011;9651;49.138;8.900;2023-02-28T09:45:47;11.23;;;5.50;;
19036;SDS011;9651;49.138;8.900;2023-02-28T09:49:59;10.57;;;5.80;;
19036;SDS011;9651;49.138;8.900;2023-02-28T09:54:10;10.00;;;5.83;;
19036;SDS011;9651;49.138;8.900;2023-02-28T09:58:20;8.40;;;6.17;;
19036;SDS011;9651;49.138;8.900;2023-02-28T10:02:38;9.97;;;5.23;;
19036;SDS011;9651;49.138;8.900;2023-02-28T10:06:49;9.87;;;5.53;;
19036;SDS011;9651;49.138;8.900;2023-02-28T10:10:55;7.90;;;5.43;;
19036;SDS011;9651;49.138;8.900;2023-02-28T10:14:59;9.93;;;6.53;;
19036;SDS011;9651;49.138;8.900;2023-02-28T10:19:03;11.83;;;6.03;;
19036;SDS011;9651;49.138;8.900;2023-02-28T10:23:09;11.07;;;6.07;;
19036;SDS011;9651;49.138;8.900;2023-02-28T10:27:19;9.37;;;6.30;;
19036;SDS011;9651;49.138;8.900;2023-02-28T10:31:22;9.47;;;5.90;;
19036;SDS011;9651;49.138;8.900;2023-02-28T10:35:25;9.70;;;5.83;;
19036;SDS011;9651;49.138;8.900;2023-02-28T10:39:34;10.43;;;5.83;;
19036;SDS011;9651;49.138;8.900;2023-02-28T10:43:39;8.60;;;5.50;;
19036;SDS011;9651;49.138;8.900;2023-02-28T10:47:49;13.43;;;6.03;;
19036;SDS011;9651;49.138;8.900;2023-02-28T10:51:53;13.17;;;6.50;;
19036;SDS011;9651;49.138;8.900;2023-02-28T10:55:58;15.80;;;6.90;;
19036;SDS011;9651;49.138;8.900;2023-02-28T11:00:13;12.07;;;5.97;;
19036;SDS011;9651;49.138;8.900;2023-02-28T11:04:18;10.07;;;5.47;;
19036;SDS011;9651;49.138;8.900;2023-02-28T11:08:32;9.97;;;6.13;;
19036;SDS011;9651;49.138;8.900;2023-02-28T11:12:36;10.87;;;6.57;;
19036;SDS011;9651;49.138;8.900;2023-02-28T11:16:42;13.00;;;6.30;;
19036;SDS011;9651;49.138;8.900;2023-02-28T11:20:46;9.93;;;6.17;;
19036;SDS011;9651;49.138;8.900;2023-02-28T11:24:51;7.90;;;6.00;;
19036;SDS011;9651;49.138;8.900;2023-02-28T11:29:02;8.23;;;6.27;;
19036;SDS011;9651;49.138;8.900;2023-02-28T11:33:22;11.47;;;6.80;;
19036;SDS011;9651;49.138;8.900;2023-02-28T11:37:27;8.23;;;6.47;;
19036;SDS011;9651;49.138;8.900;2023-02-28T11:41:33;9.40;;;6.63;;
19036;SDS011;9651;49.138;8.900;2023-02-28T11:45:54;9.50;;;6.43;;
19036;SDS011;9651;49.138;8.900;2023-02-28T11:50:16;8.90;;;6.27;;
19036;SDS011;9651;49.138;8.900;2023-02-28T11:54:28;10.33;;;7.07;;
19036;SDS011;9651;49.138;8.900;2023-02-28T11:58:50;9.47;;;6.60;;
19036;SDS011;9651;49.138;8.900;2023-02-28T12:03:03;9.77;;;6.63;;
19036;SDS011;9651;49.138;8.900;2023-02-28T12:07:18;11.27;;;6.30;;
19036;SDS011;9651;49.138;8.900;2023-02-28T12:11:30;9.63;;;7.20;;
19036;SDS011;9651;49.138;8.900;2023-02-28T12:15:50;17.67;;;9.80;;
19036;SDS011;9651;49.138;8.900;2023-02-28T12:20:10;12.93;;;7.60;;
19036;SDS011;9651;49.138;8.900;2023-02-28T12:24:33;10.70;;;7.70;;
19036;SDS011;9651;49.138;8.900;2023-02-28T12:28:47;11.40;;;7.23;;
19036;SDS011;9651;49.138;8.900;2023-02-28T12:32:54;10.13;;;7.13;;
19036;SDS011;9651;49.138;8.900;2023-02-28T12:37:03;9.83;;;7.57;;
19036;SDS011;9651;49.138;8.900;2023-02-28T12:41:11;8.67;;;7.10;;
19036;SDS011;9651;49.138;8.900;2023-02-28T12:45:17;8.23;;;7.27;;
19036;SDS011;9651;49.138;8.900;2023-02-28T12:49:21;15.03;;;9.27;;
19036;SDS011;9651;49.138;8.900;2023-02-28T12:53:33;12.07;;;8.23;;
19036;SDS011;9651;49.138;8.900;2023-02-28T12:57:46;11.97;;;8.03;;
19036;SDS011;9651;49.138;8.900;2023-02-28T13:02:09;14.03;;;8.43;;
19036;SDS011;9651;49.138;8.900;2023-02-28T13:06:38;13.87;;;7.60;;
19036;SDS011;9651;49.138;8.900;2023-02-28T13:10:51;11.53;;;7.73;;
19036;SDS011;9651;49.138;8.900;2023-02-28T13:15:03;9.93;;;7.53;;
19036;SDS011;9651;49.138;8.900;2023-02-28T13:19:16;17.97;;;7.40;;
19036;SDS011;9651;49.138;8.900;2023-02-28T13:23:41;10.73;;;7.03;;
19036;SDS011;9651;49.138;8.900;2023-02-28T13:28:03;10.07;;;7.33;;
19036;SDS011;9651;49.138;8.900;2023-02-28T13:32:29;11.67;;;7.83;;
19036;SDS011;9651;49.138;8.900;2023-02-28T13:36:39;13.03;;;8.30;;
19036;SDS011;9651;49.138;8.900;2023-02-28T13:40:41;21.43;;;12.30;;
19036;SDS011;9651;49.138;8.900;2023-02-28T13:49:23;30.13;;;9.97;;
19036;SDS011;9651;49.138;8.900;2023-02-28T13:53:30;13.37;;;8.60;;
19036;SDS011;9651;49.138;8.900;2023-02-28T13:57:48;11.17;;;8.03;;
19036;SDS011;9651;49.138;8.900;2023-02-28T14:02:09;14.33;;;7.97;;
19036;SDS011;9651;49.138;8.900;2023-02-28T14:06:30;13.93;;;7.43;;
19036;SDS011;9651;49.138;8.900;2023-02-28T14:10:34;13.03;;;8.03;;
19036;SDS011;9651;49.138;8.900;2023-02-28T14:14:54;11.23;;;8.00;;
19036;SDS011;9651;49.138;8.900;2023-02-28T14:18:58;13.07;;;7.97;;
19036;SDS011;9651;49.138;8.900;2023-02-28T14:23:06;16.23;;;8.73;;
19036;SDS011;9651;49.138;8.900;2023-02-28T14:27:19;12.87;;;8.07;;
19036;SDS011;9651;49.138;8.900;2023-02-28T14:31:28;16.53;;;8.07;;
19036;SDS011;9651;49.138;8.900;2023-02-28T14:35:40;16.73;;;8.90;;
19036;SDS011;9651;49.138;8.900;2023-02-28T14:39:50;15.23;;;8.10;;
19036;SDS011;9651;49.138;8.900;2023-02-28T14:43:54;14.30;;;7.97;;
19036;SDS011;9651;49.138;8.900;2023-02-28T14:47:58;12.93;;;8.13;;
19036;SDS011;9651;49.138;8.900;2023-02-28T14:52:02;11.63;;;7.60;;
19036;SDS011;9651;49.138;8.900;2023-02-28T14:56:18;11.03;;;7.80;;
19036;SDS011;9651;49.138;8.900;2023-02-28T15:00:23;13.67;;;8.47;;
19036;SDS011;9651;49.138;8.900;2023-02-28T15:04:27;15.93;;;8.73;;
19036;SDS011;9651;49.138;8.900;2023-02-28T15:08:31;14.23;;;8.87;;
19036;SDS011;9651;49.138;8.900;2023-02-28T15:12:37;12.97;;;8.53;;
19036;SDS011;9651;49.138;8.900;2023-02-28T15:16:41;14.67;;;8.40;;
19036;SDS011;9651;49.138;8.900;2023-02-28T15:20:46;13.20;;;8.33;;
19036;SDS011;9651;49.138;8.900;2023-02-28T15:24:48;18.40;;;10.00;;
19036;SDS011;9651;49.138;8.900;2023-02-28T15:28:57;12.50;;;9.20;;
19036;SDS011;9651;49.138;8.900;2023-02-28T15:33:02;15.87;;;8.10;;
19036;SDS011;9651;49.138;8.900;2023-02-28T15:37:25;15.07;;;8.50;;
19036;SDS011;9651;49.138;8.900;2023-02-28T15:41:30;11.20;;;8.07;;
19036;SDS011;9651;49.138;8.900;2023-02-28T15:45:41;13.13;;;8.53;;
19036;SDS011;9651;49.138;8.900;2023-02-28T15:49:47;13.57;;;8.10;;
19036;SDS011;9651;49.138;8.900;2023-02-28T15:53:51;13.87;;;7.87;;
19036;SDS011;9651;49.138;8.900;2023-02-28T15:57:59;14.37;;;8.83;;
19036;SDS011;9651;49.138;8.900;2023-02-28T16:02:14;13.53;;;8.67;;
19036;SDS011;9651;49.138;8.900;2023-02-28T16:06:24;16.33;;;8.63;;
19036;SDS011;9651;49.138;8.900;2023-02-28T16:10:35;17.13;;;8.87;;
19036;SDS011;9651;49.138;8.900;2023-02-28T16:14:37;14.47;;;8.80;;
19036;SDS011;9651;49.138;8.900;2023-02-28T16:18:40;12.23;;;8.27;;
19036;SDS011;9651;49.138;8.900;2023-02-28T16:22:42;14.93;;;8.40;;
19036;SDS011;9651;49.138;8.900;2023-02-28T16:26:45;14.17;;;8.03;;
19036;SDS011;9651;49.138;8.900;2023-02-28T16:30:50;17.77;;;7.73;;
19036;SDS011;9651;49.138;8.900;2023-02-28T16:34:54;11.57;;;7.67;;
19036;SDS011;9651;49.138;8.900;2023-02-28T16:38:56;14.00;;;8.37;;
19036;SDS011;9651;49.138;8.900;2023-02-28T16:42:58;15.70;;;8.17;;
19036;SDS011;9651;49.138;8.900;2023-02-28T16:47:01;15.70;;;9.67;;
19036;SDS011;9651;49.138;8.900;2023-02-28T16:51:06;18.03;;;10.40;;
19036;SDS011;9651;49.138;8.900;2023-02-28T16:55:12;14.87;;;9.60;;
19036;SDS011;9651;49.138;8.900;2023-02-28T16:59:15;16.30;;;10.03;;
19036;SDS011;9651;49.138;8.900;2023-02-28T17:03:22;14.87;;;8.83;;
19036;SDS011;9651;49.138;8.900;2023-02-28T17:07:26;17.13;;;7.83;;
19036;SDS011;9651;49.138;8.900;2023-02-28T17:11:28;14.13;;;8.30;;
19036;SDS011;9651;49.138;8.900;2023-02-28T17:15:30;18.70;;;8.60;;
19036;SDS011;9651;49.138;8.900;2023-02-28T17:19:32;14.37;;;8.80;;
19036;SDS011;9651;49.138;8.900;2023-02-28T17:23:37;20.70;;;10.13;;
19036;SDS011;9651;49.138;8.900;2023-02-28T17:27:39;21.13;;;9.87;;
19036;SDS011;9651;49.138;8.900;2023-02-28T17:31:41;15.20;;;8.90;;
19036;SDS011;9651;49.138;8.900;2023-02-28T17:35:43;19.23;;;9.93;;
19036;SDS011;9651;49.138;8.900;2023-02-28T17:39:46;20.30;;;9.77;;
19036;SDS011;9651;49.138;8.900;2023-02-28T17:43:48;19.10;;;10.20;;
19036;SDS011;9651;49.138;8.900;2023-02-28T17:47:50;13.90;;;8.97;;
19036;SDS011;9651;49.138;8.900;2023-02-28T17:51:52;18.53;;;9.63;;
19036;SDS011;9651;49.138;8.900;2023-02-28T17:55:55;19.40;;;10.07;;
19036;SDS011;9651;49.138;8.900;2023-02-28T17:59:57;24.03;;;11.63;;
19036;SDS011;9651;49.138;8.900;2023-02-28T18:03:59;28.03;;;12.93;;
19036;SDS011;9651;49.138;8.900;2023-02-28T18:08:01;26.00;;;11.63;;
19036;SDS011;9651;49.138;8.900;2023-02-28T18:12:04;27.60;;;13.27;;
19036;SDS011;9651;49.138;8.900;2023-02-28T18:16:07;28.00;;;12.87;;
19036;SDS011;9651;49.138;8.900;2023-02-28T18:20:10;28.23;;;16.43;;
19036;SDS011;9651;49.138;8.900;2023-02-28T18:24:12;22.53;;;13.57;;
19036;SDS011;9651;49.138;8.900;2023-02-28T18:28:16;16.57;;;10.10;;
19036;SDS011;9651;49.138;8.900;2023-02-28T18:32:18;16.27;;;9.30;;
19036;SDS011;9651;49.138;8.900;2023-02-28T18:36:20;14.77;;;8.77;;
19036;SDS011;9651;49.138;8.900;2023-02-28T18:40:22;25.03;;;11.03;;
19036;SDS011;9651;49.138;8.900;2023-02-28T18:44:25;30.70;;;17.30;;
19036;SDS011;9651;49.138;8.900;2023-02-28T18:48:27;22.67;;;13.23;;
19036;SDS011;9651;49.138;8.900;2023-02-28T18:52:29;24.17;;;13.43;;
19036;SDS011;9651;49.138;8.900;2023-02-28T18:56:31;20.67;;;12.33;;
19036;SDS011;9651;49.138;8.900;2023-02-28T19:00:37;27.17;;;14.33;;
19036;SDS011;9651;49.138;8.900;2023-02-28T19:04:39;26.17;;;15.73;;
19036;SDS011;9651;49.138;8.900;2023-02-28T19:08:41;25.57;;;14.67;;
19036;SDS011;9651;49.138;8.900;2023-02-28T19:12:43;35.07;;;16.30;;
19036;SDS011;9651;49.138;8.900;2023-02-28T19:16:49;28.47;;;14.93;;
19036;SDS011;9651;49.138;8.900;2023-02-28T19:20:57;26.60;;;14.43;;
19036;SDS011;9651;49.138;8.900;2023-02-28T19:24:59;22.90;;;14.03;;
19036;SDS011;9651;49.138;8.900;2023-02-28T19:29:01;25.53;;;14.23;;
19036;SDS011;9651;49.138;8.900;2023-02-28T19:33:05;23.73;;;13.67;;
19036;SDS011;9651;49.138;8.900;2023-02-28T19:37:07;29.23;;;14.40;;
19036;SDS011;9651;49.138;8.900;2023-02-28T19:41:10;24.17;;;13.77;;
19036;SDS011;9651;49.138;8.900;2023-02-28T19:45:13;23.50;;;13.07;;
19036;SDS011;9651;49.138;8.900;2023-02-28T19:49:16;24.27;;;14.10;;
19036;SDS011;9651;49.138;8.900;2023-02-28T19:53:18;31.50;;;15.87;;
19036;SDS011;9651;49.138;8.900;2023-02-28T19:57:20;25.27;;;15.07;;
19036;SDS011;9651;49.138;8.900;2023-02-28T20:01:22;30.73;;;16.67;;
19036;SDS011;9651;49.138;8.900;2023-02-28T20:05:25;26.03;;;15.43;;
19036;SDS011;9651;49.138;8.900;2023-02-28T20:09:28;22.77;;;12.63;;
19036;SDS011;9651;49.138;8.900;2023-02-28T20:13:31;21.50;;;11.30;;
19036;SDS011;9651;49.138;8.900;2023-02-28T20:17:33;21.47;;;10.93;;
19036;SDS011;9651;49.138;8.900;2023-02-28T20:21:36;18.83;;;11.57;;
19036;SDS011;9651;49.138;8.900;2023-02-28T20:25:40;23.53;;;12.07;;
19036;SDS011;9651;49.138;8.900;2023-02-28T20:29:42;28.57;;;14.27;;
19036;SDS011;9651;49.138;8.900;2023-02-28T20:33:44;23.57;;;13.43;;
19036;SDS011;9651;49.138;8.900;2023-02-28T20:37:49;24.37;;;13.23;;
19036;SDS011;9651;49.138;8.900;2023-02-28T20:41:51;21.00;;;11.90;;
19036;SDS011;9651;49.138;8.900;2023-02-28T20:45:53;21.50;;;11.97;;
19036;SDS011;9651;49.138;8.900;2023-02-28T20:49:57;21.20;;;11.60;;
19036;SDS011;9651;49.138;8.900;2023-02-28T20:54:00;19.03;;;10.50;;
19036;SDS011;9651;49.138;8.900;2023-02-28T20:58:02;17.63;;;10.53;;
19036;SDS011;9651;49.138;8.900;2023-02-28T21:02:04;22.03;;;12.60;;
19036;SDS011;9651;49.138;8.900;2023-02-28T21:06:06;18.03;;;10.80;;
19036;SDS011;9651;49.138;8.900;2023-02-28T21:10:10;21.93;;;11.13;;
19036;SDS011;9651;49.138;8.900;2023-02-28T21:14:13;24.77;;;12.53;;
19036;SDS011;9651;49.138;8.900;2023-02-28T21:18:16;29.17;;;15.50;;
19036;SDS011;9651;49.138;8.900;2023-02-28T21:22:18;31.30;;;16.40;;
19036;SDS011;9651;49.138;8.900;2023-02-28T21:26:22;25.97;;;14.30;;
19036;SDS011;9651;49.138;8.900;2023-02-28T21:30:24;24.07;;;12.70;;
19036;SDS011;9651;49.138;8.900;2023-02-28T21:34:26;26.77;;;14.30;;
19036;SDS011;9651;49.138;8.900;2023-02-28T21:38:28;29.13;;;14.13;;
19036;SDS011;9651;49.138;8.900;2023-02-28T21:42:32;25.77;;;13.10;;
19036;SDS011;9651;49.138;8.900;2023-02-28T21:46:34;27.93;;;13.53;;
19036;SDS011;9651;49.138;8.900;2023-02-28T21:50:36;25.93;;;13.27;;
19036;SDS011;9651;49.138;8.900;2023-02-28T21:54:38;22.80;;;12.13;;
19036;SDS011;9651;49.138;8.900;2023-02-28T21:58:41;25.90;;;13.30;;
19036;SDS011;9651;49.138;8.900;2023-02-28T22:02:43;24.80;;;13.30;;
19036;SDS011;9651;49.138;8.900;2023-02-28T22:06:45;25.73;;;12.00;;
19036;SDS011;9651;49.138;8.900;2023-02-28T22:10:48;21.40;;;11.97;;
19036;SDS011;9651;49.138;8.900;2023-02-28T22:14:52;26.43;;;11.93;;
19036;SDS011;9651;49.138;8.900;2023-02-28T22:18:53;22.37;;;11.80;;
19036;SDS011;9651;49.138;8.900;2023-02-28T22:22:55;25.50;;;12.43;;
19036;SDS011;9651;49.138;8.900;2023-02-28T22:26:57;22.47;;;12.00;;
19036;SDS011;9651;49.138;8.900;2023-02-28T22:31:10;20.50;;;10.23;;
19036;SDS011;9651;49.138;8.900;2023-02-28T22:35:13;22.60;;;10.40;;
19036;SDS011;9651;49.138;8.900;2023-02-28T22:39:14;20.37;;;10.40;;
19036;SDS011;9651;49.138;8.900;2023-02-28T22:43:16;19.40;;;11.13;;
19036;SDS011;9651;49.138;8.900;2023-02-28T22:47:19;21.53;;;11.57;;
19036;SDS011;9651;49.138;8.900;2023-02-28T22:51:25;22.23;;;11.80;;
19036;SDS011;9651;49.138;8.900;2023-02-28T22:55:27;18.93;;;10.80;;
19036;SDS011;9651;49.138;8.900;2023-02-28T22:59:29;15.87;;;9.33;;
19036;SDS011;9651;49.138;8.900;2023-02-28T23:03:33;16.57;;;9.37;;
19036;SDS011;9651;49.138;8.900;2023-02-28T23:07:35;13.50;;;8.40;;
19036;SDS011;9651;49.138;8.900;2023-02-28T23:11:37;20.10;;;9.97;;
19036;SDS011;9651;49.138;8.900;2023-02-28T23:15:41;21.53;;;10.03;;
19036;SDS011;9651;49.138;8.900;2023-02-28T23:19:44;19.03;;;9.63;;
19036;SDS011;9651;49.138;8.900;2023-02-28T23:23:46;16.77;;;9.37;;
19036;SDS011;9651;49.138;8.900;2023-02-28T23:27:48;16.77;;;8.40;;
19036;SDS011;9651;49.138;8.900;2023-02-28T23:31:50;17.97;;;9.93;;
19036;SDS011;9651;49.138;8.900;2023-02-28T23:35:53;16.33;;;9.10;;
19036;SDS011;9651;49.138;8.900;2023-02-28T23:39:55;17.43;;;9.83;;
19036;SDS011;9651;49.138;8.900;2023-02-28T23:43:57;17.43;;;9.83;;
19036;SDS011;9651;49.138;8.900;2023-02-28T23:47:59;16.60;;;8.97;;
19036;SDS011;9651;49.138;8.900;2023-02-28T23:52:02;18.83;;;9.53;;
19036;SDS011;9651;49.138;8.900;2023-02-28T23:56:05;17.83;;;9.83;;
